Accueil
METAR-TAF:

METAR-TAF

Aéroports :

Aérodrome de Sanikiluaq

Sanikiluaq, Nunavut, Canada

latitude: 56-32N, longitude: 079-15W, altitude: 32 m

Observation

Le bulletin a été fait il y a 20 minutes, à 05:00 UTC
Vent 13 kt de sud
Température 0°C
Humidité 86%
Pression 1019 hPa
Visibilité: 16.1 km
Nuages fragmentés à une hauteur de 5000 ft

METAR: CYSK 220500Z 18013KT 10SM BKN050 00/M02 A3008 RMK SC6 CALL OUT SLP190

Heure: 01:20 (05:20 UTC)


TAF: absent

Observations et prévisions météorologiques de plus de 4000 aéroports (messages METAR et TAF).

Les stations disponibles sont représentées par des disques jaunes et rouges sur la carte.

Passer la souris dessus pour voir le nom de la station.

Cliquer dessus pour voir les observations et prévisions météorologiques.

Pour changer de carte: cliquez sur les boutons verts avec une croix noire pour zoomer, sur le bouton vert avec un tiret pour effectuer un zoom arrière, ou sur les flèches vertes pour les cartes adjacentes.


METAR-TAF: